Beale AFB, California
Current Conditions -  °F | °C
As of 9:58 AM on Thursday 30 Oct 2014 (Local Time) from KBAB Reporting Station
Clear Clear  
Wind Chill: 64°   Ceiling: Unl
Heat Index: 64°   Visibility: 10mi
Dew Point: 49°   Wind: 3mph
Humidity: 57%   Direction: 150°SSE
Pressure: 29.96"   Gusts: NA
Location:  39.11°N, 121.36°W
Report Text: KBAB 301658Z AUTO 15003KT 10SM CLR 18/09 A2996 RMK AO2 SLP221 T01800094 $
Loading
Personal Weather Stations






























Interactive Weather Map
Tropical Storm Tracking
New forecast layout! Learn more

10-Day Weather Forecast

Advertisements
Track Severe Weather on mobile